createdAt,value
2022-08-25T00:11:26.078Z,57.20
2022-08-25T00:26:28.568Z,57.30
2022-08-25T00:41:30.087Z,57.20
2022-08-25T00:56:31.594Z,57.20
2022-08-25T01:11:33.084Z,57.40
2022-08-25T01:26:34.570Z,57.40
2022-08-25T01:41:36.055Z,57.50
2022-08-25T01:56:37.635Z,57.50
2022-08-25T02:11:39.125Z,57.60
2022-08-25T02:26:40.686Z,57.70
2022-08-25T02:41:42.186Z,57.60
2022-08-25T02:56:44.226Z,57.60
2022-08-25T03:11:46.223Z,57.70
2022-08-25T03:26:47.720Z,57.70
2022-08-25T03:41:49.202Z,57.70
2022-08-25T03:56:50.686Z,57.70
2022-08-25T04:11:53.522Z,57.70
2022-08-25T04:26:55.133Z,57.80
2022-08-25T04:41:56.621Z,57.80
2022-08-25T04:56:58.970Z,57.80
2022-08-25T05:12:00.537Z,57.80
2022-08-25T05:27:02.044Z,57.70
2022-08-25T05:42:03.541Z,57.80
2022-08-25T05:57:05.035Z,57.70
2022-08-25T06:12:06.682Z,57.70
2022-08-25T06:27:09.012Z,57.60
2022-08-25T06:42:10.493Z,57.70
2022-08-25T06:57:11.983Z,57.70
2022-08-25T07:12:13.751Z,58.90
2022-08-25T07:27:15.252Z,57.80
2022-08-25T07:42:16.743Z,57.70
2022-08-25T07:57:20.023Z,58.40
2022-08-25T08:12:21.506Z,57.30
2022-08-25T08:27:24.210Z,57.50
2022-08-25T08:42:25.742Z,57.40
2022-08-25T08:57:27.225Z,57.00
2022-08-25T09:12:29.408Z,56.70
2022-08-25T09:27:31.693Z,56.40
2022-08-25T09:42:33.177Z,56.20
2022-08-25T09:57:34.658Z,55.80
2022-08-25T10:12:36.154Z,55.40
2022-08-25T10:27:37.646Z,55.10
2022-08-25T10:42:39.218Z,55.20
2022-08-25T10:57:44.257Z,54.50
2022-08-25T11:12:45.753Z,54.30
2022-08-25T11:27:47.240Z,53.80
2022-08-25T11:42:48.734Z,50.00
2022-08-25T11:57:53.237Z,46.20
2022-08-25T12:12:55.199Z,44.10
2022-08-25T12:27:56.736Z,43.10
2022-08-25T12:42:58.777Z,43.10
2022-08-25T12:58:01.014Z,43.60
2022-08-25T13:13:02.501Z,44.10
2022-08-25T13:28:04.007Z,44.50
2022-08-25T13:43:05.493Z,44.80
2022-08-25T13:58:07.324Z,44.90
2022-08-25T14:13:15.849Z,45.20
2022-08-25T14:28:20.612Z,45.50
2022-08-25T14:43:23.865Z,45.70
2022-08-25T14:58:26.655Z,46.10
2022-08-25T15:13:28.381Z,46.20
2022-08-25T15:28:29.930Z,46.50
2022-08-25T15:43:32.274Z,46.90
2022-08-25T15:58:33.757Z,47.50
2022-08-25T16:13:35.453Z,48.20
2022-08-25T16:28:36.994Z,48.80
2022-08-25T16:43:38.482Z,49.20
2022-08-25T16:58:39.969Z,49.70
2022-08-25T17:13:44.351Z,50.10
2022-08-25T17:28:46.241Z,50.40
2022-08-25T17:43:47.750Z,50.70
2022-08-25T17:58:49.631Z,50.90
2022-08-25T18:13:51.179Z,51.10
2022-08-25T18:28:52.663Z,51.30
2022-08-25T18:43:54.136Z,51.50
2022-08-25T18:58:55.628Z,51.80
2022-08-25T19:13:57.113Z,52.10
2022-08-25T19:28:58.723Z,52.40
2022-08-25T19:44:00.874Z,52.50
2022-08-25T19:59:02.624Z,52.90
2022-08-25T20:14:04.905Z,53.00
2022-08-25T20:29:06.390Z,53.20
2022-08-25T20:44:08.977Z,53.30
2022-08-25T20:59:11.595Z,53.50
2022-08-25T21:14:13.276Z,53.60
2022-08-25T21:29:15.027Z,53.70
2022-08-25T21:44:16.935Z,53.80
2022-08-25T21:59:19.295Z,54.10
2022-08-25T22:14:20.781Z,54.20
2022-08-25T22:29:24.752Z,54.40
2022-08-25T22:44:27.165Z,54.90
2022-08-25T22:59:28.692Z,54.90
2022-08-25T23:14:30.277Z,54.90
2022-08-25T23:29:31.757Z,55.00
2022-08-25T23:44:33.243Z,55.00
2022-08-25T23:59:34.728Z,55.10
